createdAt,value
2023-05-12T00:01:46.535Z,100.00
2023-05-12T00:06:48.905Z,100.00
2023-05-12T00:11:51.193Z,100.00
2023-05-12T00:16:53.635Z,99.19
2023-05-12T00:21:55.860Z,100.00
2023-05-12T00:26:58.136Z,99.33
2023-05-12T00:32:00.718Z,97.10
2023-05-12T00:37:03.061Z,100.00
2023-05-12T00:42:05.771Z,100.00
2023-05-12T00:47:09.260Z,100.00
2023-05-12T00:52:11.862Z,100.00
2023-05-12T00:57:14.806Z,100.00
2023-05-12T01:02:17.384Z,100.00
2023-05-12T01:07:23.146Z,100.00
2023-05-12T01:12:27.445Z,100.00
2023-05-12T01:17:35.211Z,100.00
2023-05-12T01:22:40.146Z,100.00
2023-05-12T01:27:43.939Z,100.00
2023-05-12T01:32:46.431Z,100.00
2023-05-12T01:37:48.660Z,100.00
2023-05-12T01:42:50.810Z,100.00
2023-05-12T01:47:53.658Z,100.00
2023-05-12T01:52:56.078Z,100.00
2023-05-12T01:57:58.251Z,100.00
2023-05-12T02:03:01.170Z,100.00
2023-05-12T02:08:04.540Z,97.97
2023-05-12T02:13:07.200Z,100.00
2023-05-12T02:18:10.449Z,100.00
2023-05-12T02:23:14.697Z,100.00
2023-05-12T02:28:16.986Z,100.00
2023-05-12T02:33:23.359Z,100.00
2023-05-12T02:38:25.947Z,100.00
2023-05-12T02:43:28.203Z,100.00
2023-05-12T02:48:30.782Z,100.00
2023-05-12T02:53:33.332Z,100.00
2023-05-12T02:58:35.754Z,99.99
2023-05-12T03:03:38.078Z,100.00
2023-05-12T03:08:40.481Z,100.00
2023-05-12T03:13:42.670Z,100.00
2023-05-12T03:18:44.829Z,100.00
2023-05-12T03:23:47.119Z,100.00
2023-05-12T03:28:49.505Z,100.00
2023-05-12T03:33:51.613Z,100.00
2023-05-12T03:38:53.976Z,100.00
2023-05-12T03:43:56.281Z,100.00
2023-05-12T03:48:59.133Z,100.00
2023-05-12T03:54:01.859Z,100.00
2023-05-12T03:59:04.375Z,100.00
2023-05-12T04:04:06.659Z,100.00
2023-05-12T04:09:08.909Z,100.00
2023-05-12T04:14:11.977Z,100.00
2023-05-12T04:19:14.078Z,100.00
2023-05-12T04:24:16.590Z,100.00
2023-05-12T04:29:19.036Z,100.00
2023-05-12T04:34:22.419Z,100.00
2023-05-12T04:39:25.523Z,100.00
2023-05-12T04:44:28.319Z,100.00
2023-05-12T04:49:30.919Z,100.00
2023-05-12T04:54:33.283Z,100.00
2023-05-12T04:59:36.296Z,100.00
2023-05-12T05:04:38.909Z,100.00
2023-05-12T05:09:41.146Z,100.00
2023-05-12T05:14:43.315Z,100.00
2023-05-12T05:19:57.286Z,100.00
2023-05-12T05:25:01.065Z,100.00
2023-05-12T05:30:03.676Z,100.00
2023-05-12T05:35:08.529Z,100.00
2023-05-12T05:40:14.514Z,100.00
2023-05-12T05:45:17.066Z,100.00
2023-05-12T05:50:19.730Z,100.00
2023-05-12T05:55:22.540Z,100.00
2023-05-12T06:00:25.933Z,100.00
2023-05-12T06:05:28.566Z,100.00
2023-05-12T06:10:31.252Z,100.00
2023-05-12T06:15:34.380Z,100.00
2023-05-12T06:20:36.622Z,100.00
2023-05-12T06:25:38.824Z,100.00
2023-05-12T06:30:41.012Z,100.00
2023-05-12T06:35:43.316Z,100.00
2023-05-12T06:40:45.657Z,100.00
2023-05-12T06:45:48.306Z,100.00
2023-05-12T06:50:50.462Z,97.60
2023-05-12T06:55:56.462Z,99.55
2023-05-12T07:00:59.470Z,100.00
2023-05-12T07:06:02.256Z,96.70
2023-05-12T07:11:04.630Z,96.52
2023-05-12T07:16:07.533Z,99.25
2023-05-12T07:21:10.519Z,100.00
2023-05-12T07:26:12.785Z,100.00
2023-05-12T07:31:15.005Z,95.59
2023-05-12T07:36:17.201Z,96.29
2023-05-12T07:41:19.414Z,93.25
2023-05-12T07:46:21.547Z,98.18
2023-05-12T07:51:23.989Z,97.38
2023-05-12T07:56:26.167Z,92.23
2023-05-12T08:01:28.388Z,92.38
2023-05-12T08:06:31.941Z,79.75
2023-05-12T08:11:34.335Z,81.58
2023-05-12T08:16:36.857Z,94.18
2023-05-12T08:21:39.082Z,85.20
2023-05-12T08:26:41.343Z,82.52
2023-05-12T08:31:43.780Z,83.57
2023-05-12T08:36:46.126Z,84.40
2023-05-12T08:42:11.002Z,82.01
2023-05-12T08:47:15.074Z,84.48
2023-05-12T08:52:21.856Z,76.17
2023-05-12T08:57:26.403Z,81.44
2023-05-12T09:02:44.756Z,81.19
2023-05-12T09:07:53.571Z,85.17
2023-05-12T09:13:04.456Z,81.29
2023-05-12T09:18:06.944Z,97.81
2023-05-12T09:23:22.202Z,76.27
2023-05-12T09:28:24.500Z,76.77
2023-05-12T09:33:26.686Z,83.69
2023-05-12T09:38:29.057Z,75.34
2023-05-12T09:43:31.696Z,77.57
2023-05-12T09:48:34.514Z,81.19
2023-05-12T09:53:43.285Z,82.04
2023-05-12T09:58:48.576Z,73.02
2023-05-12T10:03:57.225Z,85.69
2023-05-12T10:09:19.549Z,77.61
2023-05-12T10:14:23.794Z,74.10
2023-05-12T10:19:28.581Z,82.49
2023-05-12T10:24:30.824Z,84.95
2023-05-12T10:29:35.338Z,79.90
2023-05-12T10:34:42.113Z,76.51
2023-05-12T10:39:52.538Z,73.63
2023-05-12T10:44:56.883Z,66.74
2023-05-12T10:50:00.093Z,66.94
2023-05-12T10:55:04.530Z,70.45
2023-05-12T11:00:14.885Z,72.10
2023-05-12T11:05:18.693Z,77.28
2023-05-12T11:10:22.080Z,82.91
2023-05-12T11:15:24.960Z,83.25
2023-05-12T11:20:29.534Z,87.42
2023-05-12T11:25:33.516Z,86.31
2023-05-12T11:30:35.836Z,83.06
2023-05-12T11:35:38.024Z,88.05
2023-05-12T11:40:41.499Z,90.21
2023-05-12T11:45:46.208Z,94.31
2023-05-12T11:50:51.477Z,97.96
2023-05-12T11:55:56.852Z,99.38
2023-05-12T12:01:12.840Z,96.58
2023-05-12T12:06:15.959Z,100.00
2023-05-12T12:11:19.949Z,100.00
2023-05-12T12:16:27.426Z,100.00
2023-05-12T12:21:29.682Z,100.00
2023-05-12T12:26:32.060Z,91.98
2023-05-12T12:31:36.473Z,85.06
2023-05-12T12:36:38.796Z,88.16
2023-05-12T12:41:41.295Z,83.65
2023-05-12T12:46:44.138Z,80.40
2023-05-12T12:51:47.358Z,74.73
2023-05-12T12:56:49.636Z,70.44
2023-05-12T13:01:51.999Z,72.03
2023-05-12T13:06:54.220Z,71.66
2023-05-12T13:11:56.559Z,64.93
2023-05-12T13:16:58.851Z,73.62
2023-05-12T13:22:01.044Z,68.86
2023-05-12T13:27:08.311Z,78.63
2023-05-12T13:32:10.593Z,74.53
2023-05-12T13:37:12.743Z,74.84
2023-05-12T13:42:15.133Z,77.55
2023-05-12T13:47:18.601Z,75.83
2023-05-12T13:52:21.119Z,72.19
2023-05-12T13:57:23.356Z,71.25
2023-05-12T14:02:25.804Z,77.23
2023-05-12T14:07:29.365Z,85.28
2023-05-12T14:12:31.988Z,89.37
2023-05-12T14:17:34.594Z,89.53
2023-05-12T14:22:36.916Z,89.24
2023-05-12T14:27:38.980Z,82.72
2023-05-12T14:32:41.358Z,81.59
2023-05-12T14:37:43.740Z,82.34
2023-05-12T14:42:47.464Z,75.66
2023-05-12T14:47:49.736Z,75.74
2023-05-12T14:52:52.026Z,82.80
2023-05-12T14:57:54.212Z,85.52
2023-05-12T15:02:56.478Z,84.82
2023-05-12T15:07:58.855Z,85.73
2023-05-12T15:13:01.183Z,83.20
2023-05-12T15:18:04.459Z,79.11
2023-05-12T15:23:07.028Z,79.53
2023-05-12T15:28:09.132Z,79.50
2023-05-12T15:33:11.445Z,86.69
2023-05-12T15:38:13.966Z,86.41
2023-05-12T15:43:16.142Z,79.06
2023-05-12T15:48:18.391Z,78.68
2023-05-12T15:53:20.641Z,88.84
2023-05-12T15:58:22.732Z,80.01
2023-05-12T16:03:25.192Z,79.58
2023-05-12T16:08:27.469Z,81.72
2023-05-12T16:13:29.638Z,82.75
2023-05-12T16:18:32.471Z,87.66
2023-05-12T16:23:34.935Z,87.32
2023-05-12T16:28:37.502Z,76.86
2023-05-12T16:33:39.765Z,81.89
2023-05-12T16:38:41.953Z,75.39
2023-05-12T16:43:44.188Z,76.84
2023-05-12T16:48:46.496Z,78.08
2023-05-12T16:53:48.653Z,77.05
2023-05-12T16:58:51.206Z,79.66
2023-05-12T17:03:53.407Z,79.71
2023-05-12T17:08:55.610Z,81.22
2023-05-12T17:13:57.970Z,84.93
2023-05-12T17:24:06.034Z,78.15
2023-05-12T17:29:08.336Z,85.49
2023-05-12T17:34:10.521Z,81.13
2023-05-12T17:39:15.904Z,81.83
2023-05-12T17:44:18.380Z,82.88
2023-05-12T17:49:20.600Z,82.04
2023-05-12T17:54:22.949Z,82.58
2023-05-12T17:59:25.406Z,91.77
2023-05-12T18:04:27.633Z,83.51
2023-05-12T18:09:30.455Z,87.79
2023-05-12T18:14:33.022Z,84.97
2023-05-12T18:19:35.679Z,90.44
2023-05-12T18:24:37.918Z,87.85
2023-05-12T18:29:40.184Z,87.25
2023-05-12T18:34:44.196Z,87.85
2023-05-12T18:39:46.377Z,90.52
2023-05-12T18:44:48.976Z,93.90
2023-05-12T18:49:51.224Z,88.84
2023-05-12T18:54:53.375Z,90.53
2023-05-12T18:59:55.924Z,89.82
2023-05-12T19:04:58.087Z,95.41
2023-05-12T19:10:00.305Z,96.32
2023-05-12T19:15:02.866Z,89.38
2023-05-12T19:20:06.370Z,91.53
2023-05-12T19:25:09.658Z,93.30
2023-05-12T19:30:14.152Z,90.55
2023-05-12T19:35:20.084Z,93.18
2023-05-12T19:40:22.345Z,93.79
2023-05-12T19:45:24.551Z,98.77
2023-05-12T19:50:29.679Z,96.67
2023-05-12T19:55:31.992Z,95.52
2023-05-12T20:00:34.596Z,88.26
2023-05-12T20:05:37.843Z,91.00
2023-05-12T20:10:40.063Z,92.59
2023-05-12T20:15:44.193Z,97.26
2023-05-12T20:20:46.310Z,97.28
2023-05-12T20:25:48.490Z,92.48
2023-05-12T20:30:50.759Z,93.57
2023-05-12T20:35:52.973Z,91.90
2023-05-12T20:40:55.549Z,96.92
2023-05-12T20:45:57.759Z,100.00
2023-05-12T20:51:09.344Z,100.00
2023-05-12T20:56:12.979Z,89.70
2023-05-12T21:01:18.989Z,98.38
2023-05-12T21:06:21.163Z,92.86
2023-05-12T21:11:23.305Z,92.72
2023-05-12T21:16:25.572Z,92.22
2023-05-12T21:21:28.877Z,94.28
2023-05-12T21:26:30.966Z,92.96
2023-05-12T21:31:33.384Z,100.00
2023-05-12T21:36:35.834Z,98.51
2023-05-12T21:41:38.715Z,92.13
2023-05-12T21:46:41.168Z,91.97
2023-05-12T21:51:43.386Z,93.44
2023-05-12T21:56:45.492Z,100.00
2023-05-12T22:01:47.691Z,93.99
2023-05-12T22:06:52.007Z,97.48
2023-05-12T22:11:54.153Z,93.74
2023-05-12T22:16:56.877Z,96.68
2023-05-12T22:21:59.141Z,94.82
2023-05-12T22:27:01.575Z,89.73
2023-05-12T22:32:04.209Z,91.61
2023-05-12T22:37:06.462Z,100.00
2023-05-12T22:42:08.541Z,92.67
2023-05-12T22:47:10.930Z,91.60
2023-05-12T22:52:13.255Z,93.83
2023-05-12T22:57:15.421Z,93.69
2023-05-12T23:02:17.569Z,92.23
2023-05-12T23:07:19.742Z,100.00
2023-05-12T23:12:21.914Z,100.00
2023-05-12T23:17:24.230Z,95.92
2023-05-12T23:22:26.552Z,93.05
2023-05-12T23:27:28.706Z,89.55
2023-05-12T23:32:31.422Z,96.97
2023-05-12T23:37:34.358Z,91.26
2023-05-12T23:42:36.637Z,92.79
2023-05-12T23:47:39.055Z,93.37
2023-05-12T23:52:41.403Z,96.62
2023-05-12T23:57:43.530Z,91.38
